sensor_id;sensor_type;location;lat;lon;timestamp;pressure;altitude;pressure_sealevel;temperature;humidity
46690;BME280;32423;45.398;10.874;2022-09-09T00:02:22;100388.03;;;25.97;56.09
46690;BME280;32423;45.398;10.874;2022-09-09T00:05:24;100383.66;;;25.96;56.20
46690;BME280;32423;45.398;10.874;2022-09-09T00:08:19;100380.13;;;25.95;56.10
46690;BME280;32423;45.398;10.874;2022-09-09T00:11:05;100382.47;;;25.97;55.94
46690;BME280;32423;45.398;10.874;2022-09-09T00:13:57;100379.69;;;25.97;55.83
46690;BME280;32423;45.398;10.874;2022-09-09T00:16:49;100378.47;;;25.98;55.77
46690;BME280;32423;45.398;10.874;2022-09-09T00:19:44;100386.03;;;25.97;56.09
46690;BME280;32423;45.398;10.874;2022-09-09T00:22:30;100386.47;;;25.96;55.98
46690;BME280;32423;45.398;10.874;2022-09-09T00:25:24;100384.84;;;25.98;55.63
46690;BME280;32423;45.398;10.874;2022-09-09T00:28:18;100388.03;;;25.97;56.15
46690;BME280;32423;45.398;10.874;2022-09-09T00:31:16;100377.75;;;25.94;55.74
46690;BME280;32423;45.398;10.874;2022-09-09T00:34:15;100382.13;;;25.95;56.10
46690;BME280;32423;45.398;10.874;2022-09-09T00:37:02;100394.47;;;25.94;55.89
46690;BME280;32423;45.398;10.874;2022-09-09T00:39:48;100393.69;;;25.93;56.08
46690;BME280;32423;45.398;10.874;2022-09-09T00:42:42;100384.16;;;25.91;56.10
46690;BME280;32423;45.398;10.874;2022-09-09T00:48:53;100390.13;;;25.93;55.93
46690;BME280;32423;45.398;10.874;2022-09-09T00:57:35;100381.09;;;25.85;56.03
46690;BME280;32423;45.398;10.874;2022-09-09T01:06:31;100393.66;;;25.74;55.37
46690;BME280;32423;45.398;10.874;2022-09-09T01:09:24;100384.16;;;25.71;55.46
46690;BME280;32423;45.398;10.874;2022-09-09T01:12:24;100368.31;;;25.68;55.25
46690;BME280;32423;45.398;10.874;2022-09-09T01:15:25;100367.13;;;25.66;55.39
46690;BME280;32423;45.398;10.874;2022-09-09T01:18:14;100360.78;;;25.65;54.91
46690;BME280;32423;45.398;10.874;2022-09-09T01:25:01;100374.47;;;25.56;55.30
46690;BME280;32423;45.398;10.874;2022-09-09T01:28:16;100372.50;;;25.57;55.39
46690;BME280;32423;45.398;10.874;2022-09-09T01:31:05;100370.53;;;25.53;55.30
46690;BME280;32423;45.398;10.874;2022-09-09T01:33:58;100361.75;;;25.55;55.09
46690;BME280;32423;45.398;10.874;2022-09-09T01:39:40;100360.22;;;25.50;55.14
46690;BME280;32423;45.398;10.874;2022-09-09T01:42:29;100353.53;;;25.48;55.16
46690;BME280;32423;45.398;10.874;2022-09-09T01:45:14;100356.31;;;25.48;55.38
46690;BME280;32423;45.398;10.874;2022-09-09T01:47:59;100355.16;;;25.45;55.63
46690;BME280;32423;45.398;10.874;2022-09-09T01:51:00;100352.38;;;25.45;55.39
46690;BME280;32423;45.398;10.874;2022-09-09T01:53:46;100339.22;;;25.46;55.32
46690;BME280;32423;45.398;10.874;2022-09-09T02:04:55;100344.50;;;25.40;55.46
46690;BME280;32423;45.398;10.874;2022-09-09T02:07:47;100342.97;;;25.39;55.58
46690;BME280;32423;45.398;10.874;2022-09-09T02:11:14;100339.38;;;25.39;55.44
46690;BME280;32423;45.398;10.874;2022-09-09T02:14:16;100339.78;;;25.37;55.49
46690;BME280;32423;45.398;10.874;2022-09-09T02:17:10;100337.44;;;25.36;55.69
46690;BME280;32423;45.398;10.874;2022-09-09T02:20:14;100340.28;;;25.32;55.48
46690;BME280;32423;45.398;10.874;2022-09-09T02:23:15;100329.53;;;25.34;55.40
46690;BME280;32423;45.398;10.874;2022-09-09T02:26:03;100331.53;;;25.34;55.86
46690;BME280;32423;45.398;10.874;2022-09-09T02:28:50;100334.31;;;25.34;55.68
46690;BME280;32423;45.398;10.874;2022-09-09T02:31:36;100339.09;;;25.33;55.49
46690;BME280;32423;45.398;10.874;2022-09-09T02:34:27;100348.63;;;25.32;55.32
46690;BME280;32423;45.398;10.874;2022-09-09T02:37:15;100339.97;;;25.27;55.21
46690;BME280;32423;45.398;10.874;2022-09-09T02:40:08;100344.75;;;25.26;55.52
46690;BME280;32423;45.398;10.874;2022-09-09T02:42:57;100351.13;;;25.27;55.39
46690;BME280;32423;45.398;10.874;2022-09-09T02:45:51;100347.91;;;25.28;55.48
46690;BME280;32423;45.398;10.874;2022-09-09T02:48:47;100352.69;;;25.28;55.35
46690;BME280;32423;45.398;10.874;2022-09-09T02:57:24;100360.97;;;25.31;55.24
46690;BME280;32423;45.398;10.874;2022-09-09T03:00:13;100345.91;;;25.29;55.26
46690;BME280;32423;45.398;10.874;2022-09-09T03:02:58;100347.47;;;25.30;55.32
46690;BME280;32423;45.398;10.874;2022-09-09T03:05:44;100350.25;;;25.30;55.37
46690;BME280;32423;45.398;10.874;2022-09-09T03:08:29;100338.00;;;25.27;55.24
46690;BME280;32423;45.398;10.874;2022-09-09T03:11:16;100340.78;;;25.27;55.22
46690;BME280;32423;45.398;10.874;2022-09-09T03:14:02;100333.63;;;25.26;55.26
46690;BME280;32423;45.398;10.874;2022-09-09T03:16:49;100335.28;;;25.24;55.01
46690;BME280;32423;45.398;10.874;2022-09-09T03:19:34;100329.34;;;25.22;55.14
46690;BME280;32423;45.398;10.874;2022-09-09T03:22:20;100332.53;;;25.20;54.97
46690;BME280;32423;45.398;10.874;2022-09-09T03:25:06;100327.41;;;25.19;54.74
46690;BME280;32423;45.398;10.874;2022-09-09T03:27:53;100329.81;;;25.17;54.87
46690;BME280;32423;45.398;10.874;2022-09-09T03:30:39;100328.25;;;25.16;54.93
46690;BME280;32423;45.398;10.874;2022-09-09T03:33:24;100319.53;;;25.13;55.05
46690;BME280;32423;45.398;10.874;2022-09-09T03:36:09;100314.03;;;25.10;54.97
46690;BME280;32423;45.398;10.874;2022-09-09T03:38:55;100309.69;;;25.09;54.86
46690;BME280;32423;45.398;10.874;2022-09-09T03:41:42;100316.47;;;25.08;54.91
46690;BME280;32423;45.398;10.874;2022-09-09T03:44:30;100302.25;;;25.02;54.92
46690;BME280;32423;45.398;10.874;2022-09-09T03:47:20;100316.00;;;25.09;54.92
46690;BME280;32423;45.398;10.874;2022-09-09T03:50:08;100305.31;;;25.08;54.94
46690;BME280;32423;45.398;10.874;2022-09-09T03:52:56;100311.31;;;25.06;54.89
46690;BME280;32423;45.398;10.874;2022-09-09T03:55:48;100306.94;;;25.05;54.78
46690;BME280;32423;45.398;10.874;2022-09-09T03:58:35;100306.94;;;25.05;55.10
46690;BME280;32423;45.398;10.874;2022-09-09T04:01:26;100314.09;;;25.06;55.05
46690;BME280;32423;45.398;10.874;2022-09-09T04:04:11;100301.44;;;25.02;54.94
46690;BME280;32423;45.398;10.874;2022-09-09T04:06:56;100299.88;;;25.01;54.97
46690;BME280;32423;45.398;10.874;2022-09-09T04:09:41;100295.50;;;25.00;55.00
46690;BME280;32423;45.398;10.874;2022-09-09T04:12:26;100292.00;;;24.96;55.05
46690;BME280;32423;45.398;10.874;2022-09-09T04:15:11;100300.66;;;25.01;54.79
46690;BME280;32423;45.398;10.874;2022-09-09T04:17:57;100296.75;;;24.99;55.07
46690;BME280;32423;45.398;10.874;2022-09-09T04:20:42;100300.72;;;24.98;54.73
46690;BME280;32423;45.398;10.874;2022-09-09T04:23:28;100297.94;;;24.98;54.81
46690;BME280;32423;45.398;10.874;2022-09-09T04:26:15;100287.22;;;24.96;54.92
46690;BME280;32423;45.398;10.874;2022-09-09T04:29:03;100298.38;;;24.96;55.09
46690;BME280;32423;45.398;10.874;2022-09-09T04:31:48;100288.03;;;24.97;55.08
46690;BME280;32423;45.398;10.874;2022-09-09T04:34:33;100296.75;;;24.99;55.00
46690;BME280;32423;45.398;10.874;2022-09-09T04:37:17;100299.16;;;24.97;54.86
46690;BME280;32423;45.398;10.874;2022-09-09T04:40:02;100292.78;;;24.96;54.87
46690;BME280;32423;45.398;10.874;2022-09-09T04:42:49;100290.88;;;24.93;55.12
46690;BME280;32423;45.398;10.874;2022-09-09T04:45:34;100278.72;;;24.80;54.58
46690;BME280;32423;45.398;10.874;2022-09-09T04:48:20;100290.72;;;24.77;54.64
46690;BME280;32423;45.398;10.874;2022-09-09T04:51:08;100293.34;;;24.88;54.94
46690;BME280;32423;45.398;10.874;2022-09-09T04:53:54;100292.06;;;24.92;54.62
46690;BME280;32423;45.398;10.874;2022-09-09T04:56:50;100296.06;;;24.91;54.62
46690;BME280;32423;45.398;10.874;2022-09-09T04:59:35;100295.38;;;24.84;54.89
46690;BME280;32423;45.398;10.874;2022-09-09T05:02:21;100287.94;;;24.77;54.88
46690;BME280;32423;45.398;10.874;2022-09-09T05:05:05;100292.31;;;24.75;54.75
46690;BME280;32423;45.398;10.874;2022-09-09T05:07:51;100282.94;;;24.65;54.76
46690;BME280;32423;45.398;10.874;2022-09-09T05:10:37;100300.41;;;24.65;54.81
46690;BME280;32423;45.398;10.874;2022-09-09T05:13:23;100298.91;;;24.61;55.13
46690;BME280;32423;45.398;10.874;2022-09-09T05:16:08;100301.31;;;24.59;55.26
46690;BME280;32423;45.398;10.874;2022-09-09T05:18:56;100309.66;;;24.59;55.21
46690;BME280;32423;45.398;10.874;2022-09-09T05:21:41;100317.19;;;24.58;55.40
46690;BME280;32423;45.398;10.874;2022-09-09T05:24:26;100320.41;;;24.57;55.53
46690;BME280;32423;45.398;10.874;2022-09-09T05:27:14;100321.22;;;24.57;55.70
46690;BME280;32423;45.398;10.874;2022-09-09T05:30:00;100327.97;;;24.56;55.63
46690;BME280;32423;45.398;10.874;2022-09-09T05:32:45;100321.63;;;24.56;55.47
46690;BME280;32423;45.398;10.874;2022-09-09T05:35:32;100330.81;;;24.53;55.17
46690;BME280;32423;45.398;10.874;2022-09-09T05:38:18;100341.19;;;24.49;55.60
46690;BME280;32423;45.398;10.874;2022-09-09T05:41:03;100334.41;;;24.50;55.89
46690;BME280;32423;45.398;10.874;2022-09-09T05:43:49;100333.59;;;24.53;55.52
46690;BME280;32423;45.398;10.874;2022-09-09T05:46:35;100337.91;;;24.57;56.39
46690;BME280;32423;45.398;10.874;2022-09-09T05:49:20;100341.34;;;24.65;55.93
46690;BME280;32423;45.398;10.874;2022-09-09T05:52:06;100338.53;;;24.68;56.19
46690;BME280;32423;45.398;10.874;2022-09-09T05:54:51;100345.44;;;24.84;55.76
46690;BME280;32423;45.398;10.874;2022-09-09T05:57:36;100348.56;;;24.86;56.00
46690;BME280;32423;45.398;10.874;2022-09-09T06:00:21;100342.94;;;24.93;55.81
46690;BME280;32423;45.398;10.874;2022-09-09T06:03:06;100348.44;;;24.96;55.75
46690;BME280;32423;45.398;10.874;2022-09-09T06:05:57;100354.06;;;24.93;56.08
46690;BME280;32423;45.398;10.874;2022-09-09T06:08:44;100346.34;;;25.04;56.05
46690;BME280;32423;45.398;10.874;2022-09-09T06:11:31;100351.66;;;25.18;55.64
46690;BME280;32423;45.398;10.874;2022-09-09T06:14:17;100354.44;;;25.18;55.45
46690;BME280;32423;45.398;10.874;2022-09-09T06:17:10;100365.28;;;25.12;56.09
46690;BME280;32423;45.398;10.874;2022-09-09T06:19:55;100355.03;;;25.06;56.39
46690;BME280;32423;45.398;10.874;2022-09-09T06:22:40;100359.22;;;25.18;55.82
46690;BME280;32423;45.398;10.874;2022-09-09T06:25:25;100360.25;;;25.04;56.37
46690;BME280;32423;45.398;10.874;2022-09-09T06:28:10;100359.56;;;24.96;56.63
46690;BME280;32423;45.398;10.874;2022-09-09T06:31:05;100356.94;;;25.12;56.65
46690;BME280;32423;45.398;10.874;2022-09-09T06:33:53;100355.72;;;25.13;57.13
46690;BME280;32423;45.398;10.874;2022-09-09T06:36:41;100352.16;;;25.13;57.23
46690;BME280;32423;45.398;10.874;2022-09-09T06:39:26;100355.56;;;25.24;57.28
46690;BME280;32423;45.398;10.874;2022-09-09T06:42:11;100358.03;;;25.85;55.75
46690;BME280;32423;45.398;10.874;2022-09-09T06:45:08;100355.84;;;26.52;53.42
46690;BME280;32423;45.398;10.874;2022-09-09T06:48:03;100352.81;;;26.62;53.14
46690;BME280;32423;45.398;10.874;2022-09-09T06:50:48;100358.00;;;26.80;52.78
46690;BME280;32423;45.398;10.874;2022-09-09T06:53:35;100357.56;;;26.81;52.36
46690;BME280;32423;45.398;10.874;2022-09-09T06:59:17;100353.28;;;26.25;55.21
46690;BME280;32423;45.398;10.874;2022-09-09T07:02:03;100360.47;;;26.03;56.11
46690;BME280;32423;45.398;10.874;2022-09-09T07:04:48;100355.81;;;26.16;55.22
46690;BME280;32423;45.398;10.874;2022-09-09T07:07:35;100359.66;;;26.42;53.36
46690;BME280;32423;45.398;10.874;2022-09-09T07:10:21;100355.59;;;26.62;53.41
46690;BME280;32423;45.398;10.874;2022-09-09T07:13:06;100353.34;;;26.73;53.07
46690;BME280;32423;45.398;10.874;2022-09-09T07:15:52;100350.31;;;26.84;52.03
46690;BME280;32423;45.398;10.874;2022-09-09T07:18:37;100349.31;;;26.94;51.90
46690;BME280;32423;45.398;10.874;2022-09-09T07:21:22;100339.72;;;26.95;52.14
46690;BME280;32423;45.398;10.874;2022-09-09T07:24:07;100341.63;;;26.98;52.05
46690;BME280;32423;45.398;10.874;2022-09-09T07:26:55;100333.09;;;27.05;51.77
46690;BME280;32423;45.398;10.874;2022-09-09T07:29:39;100333.72;;;26.97;51.94
46690;BME280;32423;45.398;10.874;2022-09-09T07:32:26;100329.09;;;26.90;51.33
46690;BME280;32423;45.398;10.874;2022-09-09T07:35:11;100331.00;;;26.93;51.29
46690;BME280;32423;45.398;10.874;2022-09-09T07:37:56;100327.16;;;26.87;51.12
46690;BME280;32423;45.398;10.874;2022-09-09T07:40:41;100325.13;;;26.71;51.56
46690;BME280;32423;45.398;10.874;2022-09-09T07:43:26;100332.84;;;27.61;49.85
46690;BME280;32423;45.398;10.874;2022-09-09T07:46:13;100337.84;;;32.92;37.84
46690;BME280;32423;45.398;10.874;2022-09-09T07:48:58;100334.41;;;34.71;33.95
46690;BME280;32423;45.398;10.874;2022-09-09T07:51:46;100347.34;;;38.18;28.49
46690;BME280;32423;45.398;10.874;2022-09-09T07:54:33;100348.53;;;35.87;31.09
46690;BME280;32423;45.398;10.874;2022-09-09T07:57:21;100348.13;;;38.51;27.09
46690;BME280;32423;45.398;10.874;2022-09-09T08:00:07;100357.03;;;40.56;24.78
46690;BME280;32423;45.398;10.874;2022-09-09T08:02:59;100353.34;;;37.49;28.55
46690;BME280;32423;45.398;10.874;2022-09-09T08:05:46;100349.41;;;35.73;31.55
46690;BME280;32423;45.398;10.874;2022-09-09T08:08:31;100354.84;;;38.37;27.68
46690;BME280;32423;45.398;10.874;2022-09-09T08:11:17;100361.00;;;37.26;28.86
46690;BME280;32423;45.398;10.874;2022-09-09T08:14:03;100372.41;;;38.75;26.89
46690;BME280;32423;45.398;10.874;2022-09-09T08:16:49;100379.66;;;41.52;23.29
46690;BME280;32423;45.398;10.874;2022-09-09T08:19:37;100377.09;;;40.10;24.25
46690;BME280;32423;45.398;10.874;2022-09-09T08:22:28;100375.69;;;37.95;27.07
46690;BME280;32423;45.398;10.874;2022-09-09T08:25:13;100370.25;;;37.92;27.80
46690;BME280;32423;45.398;10.874;2022-09-09T08:27:59;100375.09;;;37.63;28.15
46690;BME280;32423;45.398;10.874;2022-09-09T08:30:44;100382.94;;;35.80;31.41
46690;BME280;32423;45.398;10.874;2022-09-09T08:33:29;100371.13;;;34.71;33.14
46690;BME280;32423;45.398;10.874;2022-09-09T08:36:17;100374.63;;;36.80;29.95
46690;BME280;32423;45.398;10.874;2022-09-09T08:39:04;100370.78;;;37.79;28.68
46690;BME280;32423;45.398;10.874;2022-09-09T08:50:57;100362.34;;;38.18;27.04
46690;BME280;32423;45.398;10.874;2022-09-09T08:53:49;100377.91;;;40.05;25.71
46690;BME280;32423;45.398;10.874;2022-09-09T08:56:35;100373.16;;;40.84;24.32
46690;BME280;32423;45.398;10.874;2022-09-09T08:59:21;100372.28;;;41.99;22.54
46690;BME280;32423;45.398;10.874;2022-09-09T09:02:17;100372.00;;;39.45;26.18
46690;BME280;32423;45.398;10.874;2022-09-09T09:05:17;100364.34;;;35.99;30.46
46690;BME280;32423;45.398;10.874;2022-09-09T09:08:25;100350.38;;;32.58;37.02
46690;BME280;32423;45.398;10.874;2022-09-09T09:11:11;100358.81;;;35.44;32.63
46690;BME280;32423;45.398;10.874;2022-09-09T09:14:02;100353.69;;;36.40;30.13
46690;BME280;32423;45.398;10.874;2022-09-09T09:19:40;100358.25;;;36.64;30.89
46690;BME280;32423;45.398;10.874;2022-09-09T09:25:39;100370.06;;;38.06;27.18
46690;BME280;32423;45.398;10.874;2022-09-09T09:28:29;100348.84;;;33.14;36.17
46690;BME280;32423;45.398;10.874;2022-09-09T09:31:20;100341.50;;;33.93;35.31
46690;BME280;32423;45.398;10.874;2022-09-09T09:34:08;100342.91;;;34.42;34.85
46690;BME280;32423;45.398;10.874;2022-09-09T09:36:58;100350.63;;;33.74;36.14
46690;BME280;32423;45.398;10.874;2022-09-09T09:39:48;100375.78;;;33.15;37.14
46690;BME280;32423;45.398;10.874;2022-09-09T09:42:33;100385.38;;;32.76;37.10
46690;BME280;32423;45.398;10.874;2022-09-09T09:45:35;100374.53;;;32.32;36.81
46690;BME280;32423;45.398;10.874;2022-09-09T09:48:27;100383.34;;;31.98;37.81
46690;BME280;32423;45.398;10.874;2022-09-09T09:51:22;100403.19;;;31.58;38.81
46690;BME280;32423;45.398;10.874;2022-09-09T10:26:20;100410.47;;;29.32;45.75
46690;BME280;32423;45.398;10.874;2022-09-09T10:29:30;100405.53;;;29.11;46.01
46690;BME280;32423;45.398;10.874;2022-09-09T10:32:33;100407.69;;;28.94;46.51
46690;BME280;32423;45.398;10.874;2022-09-09T10:35:30;100409.03;;;28.89;47.18
46690;BME280;32423;45.398;10.874;2022-09-09T10:38:40;100403.66;;;28.82;47.09
46690;BME280;32423;45.398;10.874;2022-09-09T10:41:56;100400.75;;;28.73;47.69
46690;BME280;32423;45.398;10.874;2022-09-09T10:47:47;100397.66;;;28.55;47.90
46690;BME280;32423;45.398;10.874;2022-09-09T10:50:55;100397.88;;;28.48;48.50
46690;BME280;32423;45.398;10.874;2022-09-09T10:53:53;100394.72;;;28.33;48.91
46690;BME280;32423;45.398;10.874;2022-09-09T10:56:51;100396.91;;;28.13;49.37
46690;BME280;32423;45.398;10.874;2022-09-09T10:59:46;100380.50;;;27.99;49.96
46690;BME280;32423;45.398;10.874;2022-09-09T11:02:34;100380.97;;;27.97;49.72
46690;BME280;32423;45.398;10.874;2022-09-09T11:05:21;100381.81;;;27.94;49.67
46690;BME280;32423;45.398;10.874;2022-09-09T11:08:21;100383.63;;;27.88;49.54
46690;BME280;32423;45.398;10.874;2022-09-09T11:11:31;100386.16;;;27.83;50.04
46690;BME280;32423;45.398;10.874;2022-09-09T11:14:31;100377.84;;;27.79;50.14
46690;BME280;32423;45.398;10.874;2022-09-09T11:17:20;100372.91;;;27.71;50.01
46690;BME280;32423;45.398;10.874;2022-09-09T11:20:11;100374.66;;;27.64;50.30
46690;BME280;32423;45.398;10.874;2022-09-09T11:23:13;100374.41;;;27.59;50.63
46690;BME280;32423;45.398;10.874;2022-09-09T11:26:02;100372.88;;;27.58;50.90
46690;BME280;32423;45.398;10.874;2022-09-09T11:29:12;100369.34;;;27.54;50.97
46690;BME280;32423;45.398;10.874;2022-09-09T11:38:27;100357.13;;;27.48;51.04
46690;BME280;32423;45.398;10.874;2022-09-09T11:41:14;100359.94;;;27.48;51.47
46690;BME280;32423;45.398;10.874;2022-09-09T11:44:00;100356.72;;;27.49;51.56
46690;BME280;32423;45.398;10.874;2022-09-09T11:46:54;100354.69;;;27.50;51.48
46690;BME280;32423;45.398;10.874;2022-09-09T11:49:42;100354.16;;;27.55;50.90
46690;BME280;32423;45.398;10.874;2022-09-09T11:52:37;100341.66;;;27.59;50.75
46690;BME280;32423;45.398;10.874;2022-09-09T12:00:58;100331.78;;;27.71;49.45
46690;BME280;32423;45.398;10.874;2022-09-09T12:03:47;100331.25;;;27.76;49.40
46690;BME280;32423;45.398;10.874;2022-09-09T12:06:42;100330.69;;;27.81;48.87
46690;BME280;32423;45.398;10.874;2022-09-09T12:14:59;100319.47;;;27.97;49.08
46690;BME280;32423;45.398;10.874;2022-09-09T12:17:51;100316.91;;;28.03;48.81
46690;BME280;32423;45.398;10.874;2022-09-09T12:20:37;100315.09;;;28.09;48.39
46690;BME280;32423;45.398;10.874;2022-09-09T12:23:25;100306.97;;;28.15;48.19
46690;BME280;32423;45.398;10.874;2022-09-09T12:26:33;100315.94;;;28.22;48.32
46690;BME280;32423;45.398;10.874;2022-09-09T12:32:23;100315.63;;;28.33;47.49
46690;BME280;32423;45.398;10.874;2022-09-09T12:35:20;100307.47;;;28.38;47.41
46690;BME280;32423;45.398;10.874;2022-09-09T12:38:14;100306.56;;;28.41;47.17
46690;BME280;32423;45.398;10.874;2022-09-09T12:41:03;100310.03;;;28.45;47.14
46690;BME280;32423;45.398;10.874;2022-09-09T12:43:48;100301.06;;;28.50;46.51
46690;BME280;32423;45.398;10.874;2022-09-09T12:46:37;100301.28;;;28.56;46.33
46690;BME280;32423;45.398;10.874;2022-09-09T12:49:35;100299.16;;;28.60;46.17
46690;BME280;32423;45.398;10.874;2022-09-09T12:55:18;100294.91;;;28.68;45.98
46690;BME280;32423;45.398;10.874;2022-09-09T12:58:04;100285.28;;;28.69;46.11
46690;BME280;32423;45.398;10.874;2022-09-09T13:00:55;100290.22;;;28.78;46.13
46690;BME280;32423;45.398;10.874;2022-09-09T13:03:43;100289.66;;;28.83;45.95
46690;BME280;32423;45.398;10.874;2022-09-09T13:06:31;100287.97;;;28.85;45.90
46690;BME280;32423;45.398;10.874;2022-09-09T13:09:17;100284.28;;;28.88;45.64
46690;BME280;32423;45.398;10.874;2022-09-09T13:12:01;100291.31;;;28.93;45.55
46690;BME280;32423;45.398;10.874;2022-09-09T13:14:53;100284.38;;;28.98;45.48
46690;BME280;32423;45.398;10.874;2022-09-09T13:17:39;100277.84;;;29.01;45.38
46690;BME280;32423;45.398;10.874;2022-09-09T13:20:25;100276.06;;;29.07;45.22
46690;BME280;32423;45.398;10.874;2022-09-09T13:23:11;100281.56;;;29.10;45.37
46690;BME280;32423;45.398;10.874;2022-09-09T13:25:59;100284.66;;;29.12;45.06
46690;BME280;32423;45.398;10.874;2022-09-09T13:28:44;100281.41;;;29.14;45.04
46690;BME280;32423;45.398;10.874;2022-09-09T13:31:34;100279.72;;;29.16;45.09
46690;BME280;32423;45.398;10.874;2022-09-09T13:34:27;100274.00;;;29.20;44.91
46690;BME280;32423;45.398;10.874;2022-09-09T13:37:37;100269.19;;;29.20;44.70
46690;BME280;32423;45.398;10.874;2022-09-09T13:40:23;100271.88;;;29.24;44.46
46690;BME280;32423;45.398;10.874;2022-09-09T13:43:20;100268.94;;;29.27;44.70
46690;BME280;32423;45.398;10.874;2022-09-09T13:52:05;100255.94;;;29.33;44.40
46690;BME280;32423;45.398;10.874;2022-09-09T13:54:52;100257.16;;;29.32;44.31
46690;BME280;32423;45.398;10.874;2022-09-09T13:57:38;100263.13;;;29.35;44.10
46690;BME280;32423;45.398;10.874;2022-09-09T14:00:23;100258.28;;;29.35;43.80
46690;BME280;32423;45.398;10.874;2022-09-09T14:03:08;100253.00;;;29.37;43.06
46690;BME280;32423;45.398;10.874;2022-09-09T14:05:52;100252.91;;;29.41;43.05
46690;BME280;32423;45.398;10.874;2022-09-09T14:08:38;100255.22;;;29.42;43.73
46690;BME280;32423;45.398;10.874;2022-09-09T14:11:24;100244.00;;;29.42;43.51
46690;BME280;32423;45.398;10.874;2022-09-09T14:14:09;100240.75;;;29.44;43.30
46690;BME280;32423;45.398;10.874;2022-09-09T14:16:54;100235.50;;;29.46;43.20
46690;BME280;32423;45.398;10.874;2022-09-09T14:19:39;100253.06;;;29.46;43.15
46690;BME280;32423;45.398;10.874;2022-09-09T14:22:24;100241.84;;;29.46;43.30
46690;BME280;32423;45.398;10.874;2022-09-09T14:25:09;100246.22;;;29.47;43.44
46690;BME280;32423;45.398;10.874;2022-09-09T14:27:55;100242.63;;;29.47;43.31
46690;BME280;32423;45.398;10.874;2022-09-09T14:30:42;100245.44;;;29.47;43.47
46690;BME280;32423;45.398;10.874;2022-09-09T14:33:28;100249.97;;;29.44;43.69
46690;BME280;32423;45.398;10.874;2022-09-09T14:36:16;100245.25;;;29.41;43.91
46690;BME280;32423;45.398;10.874;2022-09-09T14:39:01;100244.50;;;29.41;43.61
46690;BME280;32423;45.398;10.874;2022-09-09T14:41:46;100244.16;;;29.39;43.54
46690;BME280;32423;45.398;10.874;2022-09-09T14:44:30;100246.50;;;29.40;42.76
46690;BME280;32423;45.398;10.874;2022-09-09T14:47:16;100242.44;;;29.41;42.75
46690;BME280;32423;45.398;10.874;2022-09-09T14:50:01;100249.63;;;29.42;42.30
46690;BME280;32423;45.398;10.874;2022-09-09T14:52:49;100253.19;;;29.43;42.59
46690;BME280;32423;45.398;10.874;2022-09-09T14:55:35;100247.59;;;29.43;42.82
46690;BME280;32423;45.398;10.874;2022-09-09T14:58:20;100250.84;;;29.41;42.84
46690;BME280;32423;45.398;10.874;2022-09-09T15:01:07;100232.03;;;29.42;42.70
46690;BME280;32423;45.398;10.874;2022-09-09T15:03:58;100238.75;;;29.44;41.75
46690;BME280;32423;45.398;10.874;2022-09-09T15:06:43;100241.22;;;29.42;41.38
46690;BME280;32423;45.398;10.874;2022-09-09T15:09:32;100249.97;;;29.44;41.77
46690;BME280;32423;45.398;10.874;2022-09-09T15:12:17;100247.16;;;29.44;42.38
46690;BME280;32423;45.398;10.874;2022-09-09T15:15:04;100246.81;;;29.42;42.73
46690;BME280;32423;45.398;10.874;2022-09-09T15:17:49;100241.69;;;29.41;42.84
46690;BME280;32423;45.398;10.874;2022-09-09T15:20:33;100249.31;;;29.40;41.98
46690;BME280;32423;45.398;10.874;2022-09-09T15:23:21;100244.94;;;29.39;41.03
46690;BME280;32423;45.398;10.874;2022-09-09T15:26:06;100250.84;;;29.41;40.91
46690;BME280;32423;45.398;10.874;2022-09-09T15:28:51;100245.72;;;29.40;41.39
46690;BME280;32423;45.398;10.874;2022-09-09T15:31:36;100250.84;;;29.41;41.72
46690;BME280;32423;45.398;10.874;2022-09-09T15:34:21;100245.72;;;29.40;41.56
46690;BME280;32423;45.398;10.874;2022-09-09T15:37:09;100240.13;;;29.40;41.52
46690;BME280;32423;45.398;10.874;2022-09-09T15:39:54;100249.88;;;29.35;41.68
46690;BME280;32423;45.398;10.874;2022-09-09T15:42:39;100255.16;;;29.33;42.00
46690;BME280;32423;45.398;10.874;2022-09-09T15:45:24;100250.44;;;29.30;42.00
46690;BME280;32423;45.398;10.874;2022-09-09T15:48:09;100246.84;;;29.29;41.70
46690;BME280;32423;45.398;10.874;2022-09-09T15:51:04;100243.28;;;29.29;41.58
46690;BME280;32423;45.398;10.874;2022-09-09T15:53:53;100242.63;;;29.25;41.89
46690;BME280;32423;45.398;10.874;2022-09-09T15:56:40;100250.81;;;29.19;41.27
46690;BME280;32423;45.398;10.874;2022-09-09T15:59:27;100242.88;;;29.18;41.49
46690;BME280;32423;45.398;10.874;2022-09-09T16:02:12;100243.78;;;29.15;41.38
46690;BME280;32423;45.398;10.874;2022-09-09T16:04:56;100247.47;;;29.12;41.45
46690;BME280;32423;45.398;10.874;2022-09-09T16:07:47;100236.84;;;29.07;41.62
46690;BME280;32423;45.398;10.874;2022-09-09T16:10:32;100235.41;;;29.02;41.36
46690;BME280;32423;45.398;10.874;2022-09-09T16:13:16;100239.13;;;28.99;41.34
46690;BME280;32423;45.398;10.874;2022-09-09T16:16:03;100231.63;;;28.96;42.30
46690;BME280;32423;45.398;10.874;2022-09-09T16:18:57;100241.72;;;28.94;42.29
46690;BME280;32423;45.398;10.874;2022-09-09T16:21:45;100242.28;;;28.88;41.96
46690;BME280;32423;45.398;10.874;2022-09-09T16:24:34;100241.63;;;28.84;42.27
46690;BME280;32423;45.398;10.874;2022-09-09T16:27:18;100243.00;;;28.80;42.66
46690;BME280;32423;45.398;10.874;2022-09-09T16:30:03;100238.72;;;28.75;43.09
46690;BME280;32423;45.398;10.874;2022-09-09T16:32:49;100243.22;;;28.73;42.87